Time;durP1;ratioP1;P1;durP2;ratioP2;P2;SDS_P1;SDS_P2;PMS_P1;PMS_P2;Temp;Humidity;BMP_temperature;BMP_pressure;BME280_temperature;BME280_humidity;BME280_pressure;Samples;Min_cycle;Max_cycle;Signal;HPM_P1;HPM_P2
2022/01/22 10:12:43;;;;;;;31.33;28.80;;;3.80;99.90;;;;;;5063374;28;20563;-73
2022/01/22 10:15:12;;;;;;;32.93;30.03;;;4.70;99.90;;;;;;5063413;28;20451;-72
2022/01/22 10:17:42;;;;;;;34.20;31.10;;;4.70;99.90;;;;;;5043459;28;20440;-73
2022/01/22 10:20:30;;;;;;;31.63;29.03;;;4.80;99.90;;;;;;5043409;28;20576;-73
2022/01/22 10:23:00;;;;;;;30.80;28.57;;;4.80;99.90;;;;;;5043382;28;20460;-72
2022/01/22 10:25:31;;;;;;;31.47;29.17;;;4.80;99.90;;;;;;5043181;28;20451;-72
2022/01/22 10:28:01;;;;;;;33.07;30.40;;;4.80;99.90;;;;;;5043228;28;20914;-73
2022/01/22 10:30:34;;;;;;;33.47;30.93;;;4.90;99.90;;;;;;5043092;28;20484;-73
2022/01/22 10:33:06;;;;;;;33.67;31.00;;;5.00;99.90;;;;;;5043119;28;20973;-73
2022/01/22 10:35:34;;;;;;;35.70;32.47;;;5.00;99.90;;;;;;5043232;28;20475;-72
2022/01/22 10:38:02;;;;;;;35.83;32.60;;;4.90;99.90;;;;;;5042839;28;20470;-72
2022/01/22 10:40:30;;;;;;;36.77;33.40;;;5.00;99.90;;;;;;5042854;28;20968;-73
2022/01/22 10:43:19;;;;;;;35.20;32.37;;;5.10;99.90;;;;;;5042832;28;20456;-72
2022/01/22 10:46:00;;;;;;;35.80;33.20;;;5.20;99.90;;;;;;5042900;28;20962;-73
2022/01/22 10:48:27;;;;;;;34.13;31.50;;;5.20;99.90;;;;;;5042898;28;20465;-72
2022/01/22 10:51:05;;;;;;;34.60;31.67;;;5.00;99.90;;;;;;5042636;28;20863;-72
2022/01/22 10:53:48;;;;;;;34.70;31.70;;;4.90;99.90;;;;;;5042882;28;20445;-72
2022/01/22 10:56:17;;;;;;;34.47;31.80;;;4.90;99.90;;;;;;5043482;28;20467;-72
2022/01/22 10:59:10;;;;;;;31.43;28.93;;;5.00;99.90;;;;;;5042924;28;20452;-72
2022/01/22 11:01:50;;;;;;;32.33;29.70;;;5.00;99.90;;;;;;5052330;28;20465;-72
2022/01/22 11:04:18;;;;;;;33.10;30.37;;;5.00;99.90;;;;;;5022782;28;20498;-72
2022/01/22 11:06:54;;;;;;;33.90;31.13;;;5.00;99.90;;;;;;5023298;28;20880;-72
2022/01/22 11:09:22;;;;;;;32.03;29.30;;;4.90;99.90;;;;;;5023206;28;20464;-72
2022/01/22 11:11:49;;;;;;;32.87;30.47;;;4.90;99.90;;;;;;5019003;28;21014;-73
2022/01/22 11:14:18;;;;;;;33.20;30.30;;;4.90;99.90;;;;;;5009801;28;20449;-72
2022/01/22 11:16:47;;;;;;;33.97;31.07;;;4.90;99.90;;;;;;5009452;28;20456;-73
2022/01/22 11:19:16;;;;;;;35.10;32.30;;;5.00;99.90;;;;;;5009365;28;20481;-72
2022/01/22 11:21:47;;;;;;;32.53;30.20;;;5.10;99.90;;;;;;5009388;28;20949;-73
2022/01/22 11:24:15;;;;;;;32.00;29.70;;;5.30;99.90;;;;;;5009295;28;21172;-73
2022/01/22 11:26:46;;;;;;;32.37;29.67;;;5.40;99.90;;;;;;5009287;28;20453;-73
2022/01/22 11:29:15;;;;;;;31.27;28.87;;;5.40;99.90;;;;;;5009269;28;20586;-73
2022/01/22 11:31:46;;;;;;;29.57;27.47;;;5.30;99.90;;;;;;5009172;28;20490;-73
2022/01/22 11:34:15;;;;;;;29.40;27.30;;;5.30;99.90;;;;;;5009349;28;20458;-73
2022/01/22 11:36:47;;;;;;;31.07;28.57;;;5.50;99.90;;;;;;5009130;28;20795;-73
2022/01/22 11:39:19;;;;;;;30.63;28.33;;;5.50;99.90;;;;;;5009338;28;21122;-73
2022/01/22 11:41:52;;;;;;;30.73;28.40;;;5.50;99.90;;;;;;5009157;28;20540;-73
2022/01/22 11:44:26;;;;;;;28.90;26.77;;;5.60;99.90;;;;;;5009268;28;20474;-72
2022/01/22 11:47:09;;;;;;;29.03;26.87;;;5.70;99.90;;;;;;5008983;28;20490;-73
2022/01/22 11:49:36;;;;;;;31.13;28.80;;;5.80;99.90;;;;;;5009351;28;20467;-73
2022/01/22 11:52:24;;;;;;;29.27;27.10;;;5.90;99.90;;;;;;5008951;28;20512;-73
2022/01/22 11:54:53;;;;;;;28.70;26.70;;;6.10;99.90;;;;;;5009106;28;20465;-73
2022/01/22 11:57:21;;;;;;;29.90;27.90;;;6.10;99.90;;;;;;5009209;28;20456;-73
2022/01/22 11:59:50;;;;;;;30.20;27.50;;;6.20;99.90;;;;;;5008842;28;20454;-73
2022/01/22 12:02:18;;;;;;;28.27;26.20;;;6.40;99.90;;;;;;5008931;28;20481;-73
2022/01/22 12:05:01;;;;;;;28.57;26.47;;;6.40;99.90;;;;;;5008893;28;20795;-73
2022/01/22 12:07:29;;;;;;;26.53;24.80;;;6.40;99.90;;;;;;5008957;28;20621;-73
2022/01/22 12:10:32;;;;;;;27.63;25.33;;;6.40;99.90;;;;;;5008893;28;20825;-73
2022/01/22 12:16:09;;;;;;;24.03;22.43;;;6.30;99.90;;;;;;5015657;28;20426;-73
2022/01/22 12:18:42;;;;;;;25.90;23.87;;;6.20;99.90;;;;;;5008825;28;20965;-73
2022/01/22 12:21:32;;;;;;;22.90;20.90;;;6.30;99.90;;;;;;5008628;28;20454;-72
2022/01/22 12:24:01;;;;;;;23.13;21.13;;;6.50;99.90;;;;;;5007514;28;20464;-74
2022/01/22 12:26:39;;;;;;;22.87;20.90;;;6.60;99.90;;;;;;5008480;28;20455;-73
2022/01/22 12:29:35;;;;;;;22.67;20.40;;;6.60;99.90;;;;;;5008754;28;20547;-73
2022/01/22 12:32:22;;;;;;;20.07;18.83;;;6.70;99.90;;;;;;5008437;28;20493;-72
2022/01/22 12:35:09;;;;;;;18.33;17.13;;;6.70;99.90;;;;;;5008507;28;20452;-74
2022/01/22 12:37:40;;;;;;;18.70;17.30;;;6.70;99.90;;;;;;5008720;28;20455;-74
2022/01/22 12:40:10;;;;;;;18.80;17.50;;;6.70;99.90;;;;;;5008658;28;20460;-73
2022/01/22 12:43:06;;;;;;;18.73;17.13;;;6.70;99.90;;;;;;5008274;28;20555;-72
2022/01/22 12:45:34;;;;;;;19.47;18.20;;;6.70;99.90;;;;;;5016310;28;20560;-72
2022/01/22 12:48:03;;;;;;;17.20;16.10;;;6.70;99.90;;;;;;5008063;28;20461;-71
2022/01/22 12:50:34;;;;;;;19.30;17.87;;;6.70;99.90;;;;;;5007763;28;20453;-72
2022/01/22 12:53:07;;;;;;;18.57;17.37;;;6.70;99.90;;;;;;5007805;28;20456;-72
2022/01/22 12:56:01;;;;;;;18.43;17.13;;;6.70;99.90;;;;;;5008133;28;20934;-72
2022/01/22 12:58:30;;;;;;;17.77;16.40;;;6.70;99.90;;;;;;5007877;28;20514;-71
2022/01/22 13:01:21;;;;;;;18.03;16.83;;;6.70;99.90;;;;;;5007765;28;20449;-72
2022/01/22 13:03:50;;;;;;;19.10;17.80;;;6.60;99.90;;;;;;5007737;28;20477;-73
2022/01/22 13:06:22;;;;;;;19.83;18.53;;;6.70;99.90;;;;;;5007585;28;20824;-72
2022/01/22 13:08:49;;;;;;;19.23;17.87;;;6.70;99.90;;;;;;5007968;28;20458;-74
2022/01/22 13:11:18;;;;;;;16.90;15.80;;;6.60;99.90;;;;;;5007575;28;20519;-73
2022/01/22 13:13:49;;;;;;;16.93;15.93;;;6.70;99.90;;;;;;5007664;28;20446;-73
2022/01/22 13:16:17;;;;;;;16.20;15.10;;;6.70;99.90;;;;;;5007687;28;20478;-72
2022/01/22 13:18:48;;;;;;;17.40;16.20;;;6.60;99.90;;;;;;5007800;28;20514;-71
2022/01/22 13:21:17;;;;;;;19.00;17.23;;;6.60;99.90;;;;;;5007831;28;20586;-71
2022/01/22 13:23:47;;;;;;;17.97;16.50;;;6.60;99.90;;;;;;5008229;28;20461;-70
2022/01/22 13:26:14;;;;;;;17.70;16.30;;;6.60;99.90;;;;;;5010364;28;20478;-72
2022/01/22 13:28:42;;;;;;;18.93;17.63;;;6.50;99.90;;;;;;5007452;28;21015;-71
2022/01/22 13:31:17;;;;;;;17.57;16.47;;;6.50;99.90;;;;;;5007702;28;20904;-72
2022/01/22 13:33:52;;;;;;;17.40;16.20;;;6.50;99.90;;;;;;5007301;28;20503;-71
2022/01/22 13:36:40;;;;;;;19.40;18.00;;;6.50;99.90;;;;;;5007223;28;20470;-72
2022/01/22 13:39:34;;;;;;;18.50;17.00;;;6.50;99.90;;;;;;5007658;28;20568;-72
2022/01/22 13:45:19;;;;;;;20.87;18.83;;;6.40;99.90;;;;;;5007417;28;20473;-72
2022/01/22 13:47:53;;;;;;;20.30;18.60;;;6.40;99.90;;;;;;5007193;28;20454;-72
2022/01/22 13:50:22;;;;;;;21.93;18.90;;;6.40;99.90;;;;;;5007416;28;20552;-72
2022/01/22 13:52:50;;;;;;;18.57;17.10;;;6.40;99.90;;;;;;5007325;28;21088;-72
2022/01/22 13:55:18;;;;;;;21.00;19.40;;;6.50;99.90;;;;;;5007145;28;20520;-73
2022/01/22 13:57:47;;;;;;;19.43;17.60;;;6.50;99.90;;;;;;5006962;28;20462;-72
2022/01/22 14:00:17;;;;;;;171.17;110.33;;;6.40;99.90;;;;;;5006925;28;20487;-72
2022/01/22 14:05:33;;;;;;;18.93;17.53;;;6.30;99.90;;;;;;4995662;28;20805;-72
2022/01/22 14:08:02;;;;;;;19.07;17.67;;;6.30;99.90;;;;;;4996131;28;20982;-72
2022/01/22 14:10:31;;;;;;;18.40;17.20;;;6.30;99.90;;;;;;4994270;28;20479;-72
2022/01/22 14:13:05;;;;;;;18.90;17.47;;;6.20;99.90;;;;;;4988049;28;20576;-72
2022/01/22 14:15:35;;;;;;;19.50;18.10;;;6.30;99.90;;;;;;4989208;28;20470;-72
2022/01/22 14:18:14;;;;;;;21.33;19.73;;;6.30;99.90;;;;;;4986735;28;20480;-71
2022/01/22 14:20:43;;;;;;;19.50;17.90;;;6.30;99.90;;;;;;4987573;28;20207;-71
2022/01/22 14:23:11;;;;;;;20.37;18.77;;;6.30;99.90;;;;;;4987411;28;20478;-72
2022/01/22 14:25:55;;;;;;;20.73;19.07;;;6.30;99.90;;;;;;4987410;28;20448;-71
2022/01/22 14:28:24;;;;;;;21.70;19.47;;;6.40;99.90;;;;;;4987499;28;20448;-70
2022/01/22 14:30:51;;;;;;;19.43;17.80;;;6.30;99.90;;;;;;4987299;28;20487;-71
2022/01/22 14:33:20;;;;;;;20.23;18.67;;;6.40;99.90;;;;;;4986780;28;20485;-72
2022/01/22 14:35:59;;;;;;;19.80;18.30;;;6.30;99.90;;;;;;4987060;28;20458;-72
2022/01/22 14:38:40;;;;;;;18.87;17.50;;;6.20;99.90;;;;;;4987094;28;20459;-72
2022/01/22 14:46:52;;;;;;;20.43;18.40;;;6.20;99.90;;;;;;4987107;28;20793;-72
2022/01/22 14:49:23;;;;;;;21.23;19.73;;;6.30;99.90;;;;;;4990372;28;20453;-72
2022/01/22 14:51:50;;;;;;;19.90;18.40;;;6.30;99.90;;;;;;4990229;28;20516;-72
2022/01/22 14:54:18;;;;;;;21.40;19.50;;;6.30;99.90;;;;;;4990008;28;20451;-73
2022/01/22 14:56:46;;;;;;;19.63;17.93;;;6.30;99.90;;;;;;4989966;28;20466;-72
2022/01/22 14:59:12;;;;;;;21.87;19.90;;;6.30;99.90;;;;;;4990133;28;20478;-73
2022/01/22 15:01:39;;;;;;;21.27;19.57;;;6.30;99.90;;;;;;4990157;28;20456;-72
2022/01/22 15:04:06;;;;;;;21.10;19.43;;;6.40;99.90;;;;;;4990271;28;20458;-73
2022/01/22 15:06:33;;;;;;;19.77;18.07;;;6.40;99.90;;;;;;4990082;28;20451;-73
2022/01/22 15:08:59;;;;;;;22.47;20.67;;;6.40;99.90;;;;;;4989937;28;20451;-72
2022/01/22 15:11:26;;;;;;;21.90;20.37;;;6.30;99.90;;;;;;4989571;28;20487;-73
2022/01/22 15:13:54;;;;;;;21.80;20.00;;;6.30;99.90;;;;;;4990133;28;20898;-72
2022/01/22 15:16:21;;;;;;;21.27;19.57;;;6.30;99.90;;;;;;4990079;28;20468;-72
2022/01/22 15:18:53;;;;;;;22.27;20.60;;;6.30;99.90;;;;;;4989785;28;20864;-73
2022/01/22 15:21:20;;;;;;;20.33;18.93;;;6.40;99.90;;;;;;4990070;28;20480;-72
2022/01/22 15:23:46;;;;;;;20.00;18.47;;;6.30;99.90;;;;;;4989662;28;20451;-73
2022/01/22 15:26:14;;;;;;;20.77;19.17;;;6.30;99.90;;;;;;4989610;28;20460;-73
2022/01/22 15:28:44;;;;;;;21.43;19.50;;;6.30;99.90;;;;;;4989494;28;20878;-73
2022/01/22 15:31:32;;;;;;;19.47;17.87;;;6.30;99.90;;;;;;4989476;28;20451;-72
2022/01/22 15:34:09;;;;;;;18.67;17.13;;;6.30;99.90;;;;;;4989392;28;20981;-71
2022/01/22 15:36:36;;;;;;;20.23;18.53;;;6.30;99.90;;;;;;4989905;28;20518;-74
2022/01/22 15:39:05;;;;;;;20.10;18.50;;;6.30;99.90;;;;;;4989664;28;20450;-73
2022/01/22 15:41:33;;;;;;;19.80;18.37;;;6.30;99.90;;;;;;4989429;28;20874;-73
2022/01/22 15:43:59;;;;;;;18.83;17.30;;;6.40;99.90;;;;;;4989346;28;20480;-73
2022/01/22 15:46:27;;;;;;;20.37;18.50;;;6.40;99.90;;;;;;4989346;28;20451;-73
2022/01/22 15:48:54;;;;;;;21.07;19.20;;;6.40;99.90;;;;;;4989360;28;20454;-73
2022/01/22 15:51:21;;;;;;;19.53;18.00;;;6.40;99.90;;;;;;4989626;28;20810;-73
2022/01/22 15:53:48;;;;;;;19.57;18.07;;;6.30;99.90;;;;;;4989220;28;20455;-73
2022/01/22 15:56:15;;;;;;;21.33;19.73;;;6.30;99.90;;;;;;4989102;28;20540;-73
2022/01/22 15:58:41;;;;;;;18.67;17.20;;;6.40;99.90;;;;;;4989001;28;20943;-73
2022/01/22 16:01:10;;;;;;;18.93;17.20;;;6.30;99.90;;;;;;4989726;28;20459;-73
2022/01/22 16:03:42;;;;;;;18.27;16.70;;;6.20;99.90;;;;;;4989232;28;20481;-73
2022/01/22 16:06:18;;;;;;;20.63;18.80;;;6.20;99.90;;;;;;4989257;28;20863;-72
2022/01/22 16:08:46;;;;;;;21.63;19.60;;;6.20;99.90;;;;;;4989321;28;20552;-72
2022/01/22 16:11:13;;;;;;;21.60;19.80;;;6.20;99.90;;;;;;4988915;28;21144;-73
2022/01/22 16:13:41;;;;;;;20.53;18.80;;;6.10;99.90;;;;;;4988913;28;20498;-73
2022/01/22 16:16:07;;;;;;;20.40;18.60;;;6.20;99.90;;;;;;4989141;28;20534;-73
2022/01/22 16:18:35;;;;;;;21.60;19.90;;;6.20;99.90;;;;;;4989115;28;20465;-72
2022/01/22 16:21:04;;;;;;;19.90;18.10;;;6.20;99.90;;;;;;4989007;28;20457;-73
2022/01/22 16:23:30;;;;;;;20.93;19.33;;;6.10;99.90;;;;;;4989045;28;20454;-73
2022/01/22 16:25:57;;;;;;;20.10;18.60;;;6.10;99.90;;;;;;4988790;28;20448;-73
2022/01/22 16:28:24;;;;;;;19.00;17.53;;;6.10;99.90;;;;;;4988894;28;20458;-72
2022/01/22 16:30:51;;;;;;;20.93;18.87;;;6.20;99.90;;;;;;4989130;28;20460;-72
2022/01/22 16:33:18;;;;;;;20.50;19.00;;;6.10;99.90;;;;;;4988538;28;20848;-72
2022/01/22 16:35:46;;;;;;;20.40;18.77;;;6.00;99.90;;;;;;4988653;28;20755;-72
2022/01/22 16:38:16;;;;;;;21.13;19.40;;;6.10;99.90;;;;;;4988605;28;20946;-72
2022/01/22 16:40:43;;;;;;;20.27;18.60;;;6.10;99.90;;;;;;4988681;28;20482;-71
2022/01/22 16:43:14;;;;;;;19.37;17.93;;;6.00;99.90;;;;;;4988614;28;20947;-71
2022/01/22 16:46:08;;;;;;;19.27;17.67;;;6.10;99.90;;;;;;4988581;28;20462;-72
2022/01/22 16:51:34;;;;;;;20.40;18.80;;;6.20;99.90;;;;;;4988759;28;20498;-72
2022/01/22 16:57:26;;;;;;;22.43;20.33;;;6.10;99.90;;;;;;5148773;27;20459;-72
2022/01/22 16:59:55;;;;;;;21.00;19.10;;;6.10;99.90;;;;;;5128160;27;20946;-73
2022/01/22 17:02:24;;;;;;;21.73;20.10;;;6.10;99.90;;;;;;5122129;28;21026;-74
2022/01/22 17:04:53;;;;;;;19.53;18.03;;;6.10;99.90;;;;;;5107631;28;20456;-73
2022/01/22 17:07:33;;;;;;;23.40;20.47;;;6.10;99.90;;;;;;5107629;28;20456;-73
2022/01/22 17:10:17;;;;;;;21.50;19.80;;;6.00;99.90;;;;;;5107294;28;20453;-74
2022/01/22 17:15:33;;;;;;;23.03;20.60;;;6.00;99.90;;;;;;5107278;28;20507;-72
2022/01/22 17:18:00;;;;;;;23.27;21.00;;;5.90;99.90;;;;;;5107431;28;20835;-73
2022/01/22 17:20:27;;;;;;;23.40;21.33;;;6.00;99.90;;;;;;5107217;28;20448;-73
2022/01/22 17:22:54;;;;;;;21.80;20.00;;;6.00;99.90;;;;;;5111856;28;20438;-72
2022/01/22 17:25:20;;;;;;;22.43;20.37;;;5.90;99.90;;;;;;5108193;28;20445;-73
2022/01/22 17:27:48;;;;;;;22.73;20.80;;;6.00;99.90;;;;;;5106945;28;20457;-73
2022/01/22 17:30:17;;;;;;;22.57;20.30;;;6.00;99.90;;;;;;5106916;28;20454;-73
2022/01/22 17:32:44;;;;;;;23.33;21.10;;;6.00;99.90;;;;;;5106964;28;20540;-71
2022/01/22 17:35:11;;;;;;;21.90;20.00;;;6.00;99.90;;;;;;5106817;28;20454;-72
2022/01/22 17:37:38;;;;;;;23.37;21.27;;;5.90;99.90;;;;;;5107068;28;20452;-71
2022/01/22 17:40:05;;;;;;;21.93;20.27;;;5.90;99.90;;;;;;5107177;28;20451;-71
2022/01/22 17:42:34;;;;;;;22.00;20.20;;;5.90;99.90;;;;;;5106761;28;20442;-73
2022/01/22 17:45:08;;;;;;;24.07;22.03;;;5.90;99.90;;;;;;5106755;28;20489;-73
2022/01/22 17:47:36;;;;;;;23.60;21.40;;;5.90;99.90;;;;;;5107215;28;20510;-73
2022/01/22 17:50:04;;;;;;;23.63;21.40;;;5.90;99.90;;;;;;5106465;28;20452;-73
2022/01/22 17:52:31;;;;;;;23.53;21.50;;;5.80;99.90;;;;;;5106644;28;20468;-73
2022/01/22 17:54:57;;;;;;;25.37;23.07;;;5.80;99.90;;;;;;5106316;28;20443;-72
2022/01/22 17:57:24;;;;;;;22.93;21.13;;;5.80;99.90;;;;;;5106590;28;20543;-73
